Date,TemperatureHighF,TemperatureAvgF,TemperatureLowF,DewpointHighF,DewpointAvgF,DewpointLowF,HumidityHigh,HumidityAvg,HumidityLow,PressureMaxIn,PressureMinIn,WindSpeedMaxMPH,WindSpeedAvgMPH,GustSpeedMaxMPH,PrecipitationSumIn
2013-1-1,35.8,18.9,6.6,25.5,11.5,-0.3,84,73,60,30.38,30.17,10,1,10,0.00
2013-1-2,36.1,14.4,-0.2,25.2,6.4,-5.2,81,71,58,30.37,30.26,6,0,6,0.00
2013-1-3,37.9,14.3,1.4,25.8,5.8,-4.3,80,69,56,30.32,30.24,4,0,4,0.00
2013-1-4,37.4,18.9,3.7,25.8,9.8,-2.5,78,68,55,30.34,30.24,9,1,9,0.00
2013-1-5,34.9,20.7,7.5,24.3,12.7,0.8,79,71,62,30.27,30.08,5,0,5,0.00
2013-1-6,35.2,24.8,16.3,28.1,17.8,9.1,80,75,70,30.19,30.06,4,0,4,0.02
2013-1-7,38.3,25.6,7.5,29.7,18.0,2.7,83,73,63,30.27,30.18,4,0,4,0.00
2013-1-8,51.6,29.5,18.7,39.3,21.4,12.6,83,72,55,30.29,30.19,10,0,10,0.00
2013-1-9,58.3,32.9,18.3,40.8,22.9,12.7,86,68,42,30.21,29.78,20,3,20,0.00
2013-1-10,37.8,26.6,23.5,20.6,13.0,7.6,69,57,41,29.98,29.85,12,3,12,0.00
2013-1-11,33.3,23.8,17.8,14.6,11.6,7.6,73,60,43,30.08,29.96,10,2,10,0.00
2013-1-12,36.0,14.9,-1.5,23.4,5.5,-7.0,79,67,54,30.14,30.06,4,0,4,0.00
2013-1-13,33.3,10.9,-2.0,19.5,1.2,-7.9,80,65,51,30.24,30.10,8,1,8,0.00
2013-1-14,30.0,12.8,-1.1,13.7,1.7,-8.1,77,61,48,30.39,30.23,8,1,8,0.00
2013-1-15,41.9,20.1,6.6,25.0,8.8,-1.4,74,62,48,30.55,30.38,5,0,5,0.00
2013-1-16,46.6,22.5,7.3,29.5,11.6,-0.4,76,63,49,30.56,30.45,8,0,8,0.00
2013-1-17,46.6,22.3,7.3,30.2,11.7,0.2,77,64,48,30.48,30.36,7,0,7,0.00
2013-1-18,45.9,20.5,6.4,29.5,10.0,-1.0,77,64,49,30.40,30.31,6,0,6,0.00
2013-1-19,46.2,23.7,6.4,29.3,12.3,-0.7,77,62,48,30.44,30.33,3,0,3,0.00
2013-1-20,46.2,20.7,6.6,28.7,10.4,-0.8,76,65,46,30.43,30.32,4,0,4,0.00
2013-1-21,48.6,23.7,10.0,29.5,12.1,2.9,77,62,44,30.37,30.25,2,0,2,0.00
2013-1-22,50.7,27.1,12.2,32.6,15.2,4.1,75,61,45,30.29,30.15,6,0,6,0.00
2013-1-23,54.3,37.0,23.2,35.2,23.1,15.3,77,59,35,30.17,30.06,6,0,6,0.00
2013-1-24,43.3,38.9,33.3,33.6,29.3,24.8,77,69,56,30.23,30.12,12,1,12,0.02
2013-1-25,48.7,36.5,31.3,41.4,30.5,25.8,84,79,73,30.23,30.06,2,0,2,0.00
2013-1-26,56.1,38.7,25.7,44.3,27.2,21.2,88,66,38,30.05,29.88,20,3,20,0.00
2013-1-27,38.3,31.2,21.4,25.7,18.2,11.2,71,59,47,30.07,29.88,18,3,18,0.02
2013-1-28,42.6,27.2,12.7,25.3,15.3,5.3,77,62,46,30.16,30.04,13,1,13,0.00
2013-1-29,54.1,39.0,30.9,36.3,26.1,19.8,70,60,44,30.37,30.13,9,1,9,0.00
2013-1-30,59.2,36.2,22.8,39.5,23.8,15.8,79,62,41,30.37,30.29,7,0,7,0.00
2013-1-31,61.3,36.1,20.3,38.9,22.3,12.0,78,58,40,30.35,30.20,12,0,12,0.00
2013-2-1,57.4,35.1,19.6,33.6,20.9,10.8,76,57,37,30.32,30.21,12,1,12,0.00
2013-2-2,46.8,33.3,23.7,32.1,22.4,14.6,74,64,55,30.36,30.27,2,0,2,0.00
2013-2-3,58.5,35.3,19.2,38.3,21.2,12.5,80,59,32,30.26,30.17,14,1,14,0.00
2013-2-4,64.0,37.9,19.8,36.4,21.1,10.8,73,53,34,30.23,30.07,4,0,4,0.00
2013-2-5,61.9,40.6,24.6,34.2,19.9,12.7,73,47,24,30.10,29.95,15,1,15,0.00
2013-2-6,58.8,35.3,18.1,25.9,12.1,3.4,59,39,23,30.15,30.05,4,0,4,0.00
2013-2-7,44.6,33.8,20.8,19.6,12.2,6.2,57,42,27,30.05,29.90,13,2,13,0.00
2013-2-8,39.4,27.4,17.2,20.2,12.5,5.5,66,54,43,29.96,29.86,16,3,16,0.00
2013-2-9,44.6,26.8,12.7,22.9,10.5,2.1,70,51,33,30.08,29.95,12,1,12,0.00
2013-2-10,44.4,25.0,13.6,22.4,10.2,2.7,69,54,38,30.12,30.04,13,1,13,0.00
2013-2-11,49.3,26.9,12.0,24.2,9.2,0.7,68,49,32,30.25,30.11,8,0,8,0.00
2013-2-12,57.9,33.1,14.2,29.4,13.7,1.5,65,46,30,30.33,30.25,9,1,9,0.00
2013-2-13,58.8,34.8,16.9,31.0,16.1,4.9,67,48,31,30.36,30.24,15,1,15,0.00
2013-2-14,57.4,35.1,18.1,32.8,18.5,6.9,68,51,37,30.39,30.28,13,1,13,0.00
2013-2-15,59.5,36.8,18.5,35.2,19.3,8.6,73,51,32,30.43,30.31,8,1,8,0.00
2013-2-16,51.3,33.8,17.2,28.5,17.2,6.7,71,52,37,30.34,30.07,3,0,3,0.00
2013-2-17,58.6,30.9,19.6,28.1,13.3,6.6,63,49,29,30.07,29.99,13,1,13,0.00
2013-2-18,59.0,36.6,18.3,29.4,15.0,4.0,62,43,26,30.07,29.82,14,1,14,0.00
2013-2-19,45.7,36.1,28.6,23.2,16.6,8.2,65,46,29,29.83,29.62,18,3,18,0.00
2013-2-20,48.2,34.3,23.7,22.5,15.7,6.3,68,49,27,29.97,29.73,9,2,9,0.00
2013-2-21,48.4,30.7,21.9,22.3,12.0,0.7,64,46,30,30.13,29.93,8,1,8,0.00
2013-2-22,57.6,37.8,18.5,26.8,14.7,0.7,56,40,27,30.20,30.06,6,1,6,0.00
2013-2-23,44.2,34.9,18.7,23.2,11.1,-1.1,54,37,28,30.21,29.94,23,6,23,0.00
2013-2-24,47.8,28.1,10.9,20.8,5.8,-4.3,63,40,27,30.28,30.19,9,0,9,0.00
2013-2-25,58.3,33.1,16.0,24.8,8.5,-6.2,57,37,19,30.21,30.06,18,2,18,0.00
2013-2-26,51.6,33.5,21.0,19.9,8.4,-4.4,47,36,20,30.26,30.15,12,2,12,0.00
2013-2-27,61.9,30.4,12.2,22.3,4.1,-8.8,53,34,19,30.33,30.23,7,0,7,0.00
2013-2-28,67.3,42.5,23.7,34.3,18.7,5.0,52,39,27,30.45,30.31,8,1,8,0.00
2013-3-1,68.9,44.3,23.9,37.7,22.5,10.6,65,44,27,30.46,30.31,6,0,6,0.00
2013-3-2,71.1,50.6,28.8,36.3,24.5,12.7,62,38,23,30.35,30.11,10,0,10,0.00
2013-3-3,46.9,43.6,34.2,39.2,31.4,22.2,78,63,39,30.12,30.04,9,1,9,0.06
2013-3-4,62.6,42.0,27.3,41.3,29.4,20.5,84,63,38,30.12,30.02,9,1,9,0.00
2013-3-5,60.4,42.4,25.0,36.8,23.9,17.2,78,51,29,30.05,29.80,21,6,21,0.00
2013-3-6,45.1,36.6,27.7,27.8,21.3,13.1,78,55,42,29.96,29.80,24,6,24,0.00
2013-3-7,46.2,35.1,27.1,31.6,23.1,13.4,72,62,49,29.96,29.87,8,1,8,0.00
2013-3-8,48.7,37.1,29.8,31.9,24.9,19.4,78,62,45,29.99,29.85,7,0,7,0.00
2013-3-9,53.2,35.7,24.1,26.0,15.8,0.1,76,49,20,30.36,30.00,16,2,16,0.00
2013-3-10,62.4,37.2,16.3,26.6,9.5,-1.6,58,33,19,30.40,30.28,8,1,8,0.00
2013-3-11,68.9,38.8,20.7,29.1,10.5,0.5,53,33,17,30.33,30.16,8,0,8,0.00
2013-3-12,73.0,46.3,24.1,32.5,15.4,4.6,52,30,18,30.25,30.15,6,0,6,0.00
2013-3-13,78.8,53.0,28.2,38.9,21.6,11.3,55,32,16,30.27,30.17,7,0,7,0.00
2013-3-14,75.4,49.2,35.2,35.5,24.6,17.9,54,40,21,30.23,30.17,13,0,13,0.00
2013-3-15,72.9,50.5,29.1,36.5,22.9,15.3,61,37,17,30.22,30.08,10,1,10,0.00
2013-3-16,69.6,47.3,28.2,32.4,20.3,11.9,54,36,17,30.13,30.02,9,1,9,0.00
2013-3-17,68.5,48.4,30.7,27.1,18.3,10.8,46,32,17,30.11,30.04,10,1,10,0.00
2013-3-18,69.1,47.4,23.5,26.3,18.5,6.2,50,33,17,30.13,30.03,11,1,11,0.00
2013-3-19,67.1,52.2,39.9,34.7,27.8,19.1,49,40,29,30.14,30.06,14,3,14,0.00
2013-3-20,59.4,49.2,45.0,37.3,31.1,28.2,60,50,42,30.06,29.97,34,5,34,0.00
2013-3-21,63.5,47.1,35.8,28.3,22.0,9.8,55,38,17,30.07,29.98,17,3,17,0.04
2013-3-22,57.4,38.2,23.5,16.4,7.4,1.2,46,29,15,30.13,30.00,11,3,11,0.00
2013-3-23,55.6,38.4,18.1,17.8,6.6,-11.8,38,27,20,30.20,30.04,10,2,10,0.00
2013-3-24,69.6,47.5,21.9,31.1,15.6,-3.4,43,28,20,30.15,30.01,15,1,15,0.00
2013-3-25,70.3,45.8,25.5,27.2,15.6,5.4,47,31,15,30.05,29.94,12,1,12,0.00
2013-3-26,60.1,50.2,39.7,32.1,25.1,12.2,50,38,32,30.00,29.93,19,3,19,0.00
2013-3-27,68.9,47.0,28.0,37.3,26.7,16.2,67,47,27,30.04,29.95,13,1,13,0.00
2013-3-28,64.2,49.7,39.6,37.6,31.0,26.2,62,50,32,30.16,30.02,13,1,13,0.00
2013-3-29,72.1,49.0,28.6,42.9,29.5,20.7,79,51,25,30.21,30.11,8,0,8,0.00
2013-3-30,73.4,53.6,32.9,39.8,29.7,18.6,63,42,25,30.19,30.02,8,1,8,0.00
2013-3-31,59.7,49.1,38.1,40.8,31.1,22.9,76,51,37,30.07,29.99,16,1,16,0.06
2013-4-1,62.6,45.9,36.3,36.5,29.1,23.0,74,53,32,30.15,30.04,11,2,11,0.00
2013-4-2,69.8,48.4,28.0,38.8,27.7,17.9,75,48,27,30.19,30.09,7,0,7,0.00
2013-4-3,75.9,50.9,30.4,41.0,28.2,17.7,64,44,21,30.19,30.06,10,0,10,0.00
2013-4-4,63.3,51.5,40.3,38.2,31.2,22.5,57,46,34,30.09,30.01,21,4,21,0.00
2013-4-5,67.1,49.5,34.5,32.7,26.9,21.0,61,43,27,30.12,30.06,14,2,14,0.00
2013-4-6,68.2,52.5,41.5,35.1,27.2,20.9,45,38,27,30.13,30.06,16,2,16,0.00
2013-4-7,66.2,51.9,40.6,31.7,25.9,22.0,56,38,22,30.10,29.76,24,5,24,0.02
2013-4-8,46.2,39.0,31.3,28.7,22.6,16.1,81,54,33,30.04,29.69,24,7,24,0.00
2013-4-9,58.6,42.5,25.5,23.2,14.6,7.2,59,35,15,30.24,30.04,16,3,16,0.00
2013-4-10,75.0,49.8,25.5,36.4,21.6,5.2,50,34,22,30.30,30.09,14,1,14,0.00
2013-4-11,66.7,54.0,44.8,42.2,32.9,21.2,75,48,21,30.12,29.97,20,5,20,0.00
2013-4-12,74.8,52.8,28.9,35.0,26.5,13.3,59,38,18,30.07,29.91,10,1,10,0.00
2013-4-13,69.6,56.0,39.7,37.0,30.1,22.8,55,39,27,29.97,29.85,16,2,16,0.00
2013-4-14,67.8,51.6,36.3,31.4,25.7,18.8,53,38,25,29.94,29.77,22,4,22,0.00
2013-4-15,56.1,43.9,32.5,28.9,24.3,18.5,70,47,26,29.88,29.75,16,3,16,0.00
2013-4-16,44.4,35.0,29.8,26.2,20.5,15.3,84,58,33,30.14,29.87,20,6,20,0.00
2013-4-17,52.0,37.8,26.4,19.1,13.0,3.4,58,38,21,30.29,30.14,14,4,14,0.00
2013-4-18,64.0,40.3,19.9,22.7,11.6,-0.2,49,32,19,30.32,30.23,7,1,7,0.00
2013-4-19,70.0,52.0,27.5,34.7,24.2,7.7,50,35,24,30.30,30.13,20,2,20,0.00
2013-4-20,71.4,57.1,33.4,35.4,26.4,18.0,57,33,19,30.22,30.08,12,2,12,0.00
2013-4-21,78.6,55.9,32.2,38.0,26.5,12.1,48,34,18,30.18,30.06,13,1,13,0.00
2013-4-22,74.1,57.9,39.7,37.2,26.1,12.5,56,32,16,30.22,30.04,16,3,16,0.00
2013-4-23,65.1,49.3,30.4,21.7,10.6,2.6,33,22,14,30.23,30.01,9,1,9,0.00
2013-4-24,68.9,48.7,28.2,19.6,9.6,1.3,39,22,12,30.15,30.01,12,2,12,0.00
2013-4-25,75.6,51.9,29.3,27.8,16.5,3.1,38,26,15,30.18,30.04,15,1,15,0.00
2013-4-26,78.6,58.0,34.0,35.6,26.0,15.2,50,32,14,30.29,30.17,10,1,10,0.00
2013-4-27,81.3,61.3,38.5,42.2,30.0,21.9,55,34,16,30.32,30.19,16,1,16,0.00
2013-4-28,81.7,61.9,37.8,37.9,29.2,20.4,53,32,14,30.23,30.07,9,1,9,0.00
2013-4-29,81.5,61.5,40.8,42.7,34.0,25.3,59,38,23,30.13,29.95,24,1,24,0.00
2013-4-30,71.8,57.6,47.1,35.2,23.4,-1.7,45,29,12,30.19,29.94,17,6,17,0.00
2013-5-1,63.3,50.8,35.4,12.2,3.4,-2.8,22,15,10,30.42,30.19,18,4,18,0.00
2013-5-2,73.6,50.5,27.7,19.3,8.5,-3.5,32,20,11,30.45,30.25,9,1,9,0.00
2013-5-3,79.5,60.2,34.9,32.2,17.1,7.9,39,21,11,30.27,30.04,13,2,13,0.00
2013-5-4,70.0,53.5,36.0,30.9,21.9,10.8,43,30,18,30.09,29.83,36,2,36,0.00
2013-5-5,64.0,50.1,41.0,44.3,35.6,23.4,74,58,43,29.91,29.82,13,1,13,0.11
2013-5-6,57.2,48.7,43.0,45.1,39.5,35.9,81,71,54,30.00,29.89,13,2,13,0.18
2013-5-7,58.8,47.6,42.4,45.7,39.1,36.5,83,73,51,30.08,29.99,18,2,18,0.16
2013-5-8,65.3,54.1,44.2,50.7,42.1,38.3,86,66,40,30.14,30.06,7,1,7,0.06
2013-5-9,72.0,59.8,41.9,48.8,39.9,33.4,78,50,30,30.25,30.12,9,2,9,0.00
2013-5-10,80.1,62.1,43.9,48.4,38.4,32.5,70,45,22,30.30,30.21,16,1,16,0.00
2013-5-11,84.0,63.6,43.9,47.8,37.5,30.6,64,41,17,30.32,30.22,10,1,10,0.00
2013-5-12,85.5,66.1,46.8,47.0,38.2,32.0,62,38,22,30.31,30.21,13,1,13,0.00
2013-5-13,83.3,65.8,46.9,44.0,35.4,28.9,57,35,22,30.24,30.14,20,2,20,0.00
2013-5-14,77.5,61.2,44.2,41.0,35.3,27.7,61,39,24,30.15,30.05,13,1,13,0.00
2013-5-15,73.8,59.1,43.0,43.6,29.9,18.1,63,37,17,30.11,30.05,16,2,16,0.00
2013-5-16,65.8,53.2,42.6,38.9,31.5,22.7,53,44,32,30.08,29.99,17,2,17,0.00
2013-5-17,67.8,54.6,39.7,38.3,31.6,26.9,69,44,26,30.11,29.97,16,2,16,0.00
2013-5-18,70.7,55.1,34.5,34.9,29.4,20.1,60,39,24,30.17,30.11,14,1,14,0.00
2013-5-19,72.0,57.5,45.3,37.2,29.6,19.5,59,37,20,30.24,30.15,14,3,14,0.00
2013-5-20,76.8,59.3,36.1,34.5,26.7,16.4,51,31,17,30.25,30.07,8,0,8,0.00
2013-5-21,73.8,58.6,43.3,36.4,27.6,15.2,55,33,20,30.08,29.91,24,4,24,0.00
2013-5-22,64.0,52.3,40.3,22.2,16.0,10.7,44,25,16,29.92,29.86,19,5,19,0.00
2013-5-23,64.6,48.0,30.0,23.5,17.2,10.0,49,31,17,30.06,29.89,11,2,11,0.00
2013-5-24,74.1,52.3,30.4,29.0,21.3,12.1,51,32,15,30.05,29.95,18,1,18,0.00
2013-5-25,72.7,57.5,39.0,33.2,27.2,20.0,50,33,19,30.06,29.98,11,2,11,0.00
2013-5-26,71.2,58.1,45.1,33.2,28.4,21.7,49,33,24,30.14,30.04,18,2,18,0.00
2013-5-27,68.7,52.3,37.0,39.3,32.7,22.5,59,48,32,30.13,29.99,12,1,12,0.00
2013-5-28,70.0,59.9,50.7,41.8,37.6,34.8,69,45,29,30.02,29.93,13,2,13,0.00
2013-5-29,73.0,60.5,50.7,39.5,35.3,31.8,56,41,24,30.04,29.93,14,2,14,0.00
2013-5-30,77.7,59.3,37.8,38.9,31.2,25.0,69,39,15,30.13,30.01,13,2,13,0.00
2013-5-31,79.9,61.1,38.7,34.8,25.6,17.6,54,30,12,30.22,30.13,10,1,10,0.00
2013-6-1,87.6,65.7,39.6,41.1,28.8,15.9,44,27,14,30.20,30.02,8,1,8,0.00
2013-6-2,87.8,68.2,46.9,45.0,37.5,30.3,55,35,19,30.06,29.91,16,1,16,0.00
2013-6-3,85.8,68.0,46.8,38.6,33.1,29.3,55,31,15,30.08,29.97,10,1,10,0.00
2013-6-4,90.3,69.4,46.0,45.7,33.0,23.2,45,28,11,30.12,30.02,8,1,8,0.00
2013-6-5,92.1,70.9,47.7,44.3,36.1,28.6,53,32,13,30.18,30.07,12,1,12,0.00
2013-6-6,94.3,73.3,50.5,47.6,39.3,31.7,53,32,13,30.15,30.05,10,1,10,0.00
2013-6-7,96.3,75.1,52.3,46.8,37.1,30.4,53,30,13,30.16,30.05,11,1,11,0.00
2013-6-8,96.1,76.1,53.4,46.7,38.1,28.8,46,28,15,30.14,30.03,13,1,13,0.00
2013-6-9,92.1,70.7,54.3,46.9,40.1,34.0,50,35,18,30.09,29.97,13,0,13,0.02
2013-6-10,82.4,65.4,54.7,50.5,44.2,38.4,63,48,23,30.04,29.92,18,2,18,0.02
2013-6-11,83.3,66.9,52.9,42.2,38.1,30.1,56,37,23,30.08,30.02,18,1,18,0.00
2013-6-12,82.9,67.2,50.5,43.1,34.0,19.6,50,31,20,30.08,30.01,23,3,23,0.00
2013-6-13,76.8,62.1,41.5,28.5,22.5,16.9,42,24,11,30.19,30.06,24,2,24,0.00
2013-6-14,77.5,61.1,41.5,32.2,25.9,17.5,41,28,17,30.21,30.02,13,1,13,0.00
2013-6-15,84.4,62.9,40.5,35.6,27.9,17.7,44,29,16,30.12,30.01,17,1,17,0.00
2013-6-16,83.5,63.8,41.9,37.1,30.8,23.5,51,32,16,30.21,30.12,9,1,9,0.00
2013-6-17,82.6,62.9,42.1,38.3,30.7,23.0,51,32,18,30.20,30.08,13,1,13,0.00
2013-6-18,76.8,61.5,47.1,33.9,27.0,19.3,38,28,18,30.08,29.94,24,4,24,0.00
2013-6-19,73.0,58.5,43.9,29.9,21.4,11.2,39,25,16,30.09,29.97,14,2,14,0.00
2013-6-20,76.1,58.4,37.4,33.5,28.1,20.0,52,33,20,30.10,30.01,11,1,11,0.00
2013-6-21,78.6,60.8,41.2,37.1,30.2,23.0,52,34,17,30.15,30.04,12,1,12,0.00
2013-6-22,83.8,63.7,41.2,40.4,32.6,22.8,53,33,20,30.14,30.01,11,1,11,0.00
2013-6-23,72.3,60.0,44.6,41.2,34.6,27.0,54,39,29,30.04,29.92,20,2,20,0.00
2013-6-24,66.9,58.3,50.0,46.0,39.7,31.2,61,50,44,30.01,29.88,20,2,20,0.00
2013-6-25,70.2,62.6,54.5,53.0,46.8,42.4,68,57,48,30.12,29.99,13,1,13,0.00
2013-6-26,85.3,68.6,48.2,53.6,46.6,38.5,73,48,28,30.21,30.10,16,1,16,0.00
2013-6-27,94.8,74.1,51.3,52.6,46.5,38.1,66,41,21,30.27,30.20,14,1,14,0.00
2013-6-28,98.8,75.6,57.6,52.0,46.2,40.6,57,38,17,30.28,30.14,9,0,9,0.00
2013-6-29,97.9,77.6,58.8,54.1,46.2,37.6,64,38,14,30.20,30.09,13,1,13,0.00
2013-6-30,99.1,77.3,56.5,54.5,45.7,37.3,52,35,20,30.16,30.06,14,1,14,0.00
2013-7-1,101.1,77.8,61.5,51.4,46.4,41.1,55,36,14,30.22,30.11,11,1,11,0.00
2013-7-2,100.9,76.6,63.7,56.2,50.1,46.9,58,41,19,30.26,30.15,10,1,10,0.00
2013-7-3,98.2,72.9,56.5,57.5,48.1,43.3,65,45,17,30.26,30.09,7,0,7,0.00
2013-7-4,96.4,77.2,59.0,57.7,50.1,42.5,58,41,25,30.14,29.99,17,1,17,0.00
2013-7-5,92.8,76.1,57.4,57.4,42.6,30.4,64,35,15,30.02,29.93,18,2,18,0.00
2013-7-6,91.6,70.3,48.4,43.5,34.5,24.6,43,28,18,30.01,29.93,22,1,22,0.00
2013-7-7,90.9,73.1,52.3,43.5,37.3,32.4,51,29,16,30.08,30.00,18,2,18,0.00
2013-7-8,91.2,73.0,52.5,42.5,35.9,28.1,42,27,15,30.21,30.08,12,1,12,0.00
2013-7-9,90.3,72.2,51.6,42.3,35.4,28.2,45,28,16,30.26,30.19,13,1,13,0.00
2013-7-10,88.7,71.3,48.7,43.1,36.5,28.7,48,30,19,30.25,30.12,19,2,19,0.00
2013-7-11,87.4,75.6,63.3,46.8,39.3,31.5,35,28,19,30.12,30.05,17,1,17,0.00
2013-7-12,88.2,69.3,46.6,41.7,34.9,26.4,49,30,16,30.12,30.04,15,1,15,0.00
2013-7-13,89.1,69.1,45.7,40.1,32.8,22.7,47,29,12,30.16,30.09,13,1,13,0.00
2013-7-14,92.8,71.6,49.8,44.2,38.2,30.9,50,32,16,30.20,30.08,10,1,10,0.00
2013-7-15,91.4,72.4,51.6,48.9,40.7,32.5,51,34,20,30.12,29.97,11,1,11,0.00
2013-7-16,86.7,71.9,56.1,44.5,39.1,33.9,50,32,17,30.14,30.01,11,1,11,0.00
2013-7-17,92.1,70.5,45.7,41.7,33.9,26.0,49,29,12,30.25,30.14,9,0,9,0.00
2013-7-18,97.2,72.7,48.9,45.1,36.4,29.6,50,30,10,30.24,30.10,12,1,12,0.00
2013-7-19,100.0,76.7,53.2,47.9,39.6,33.7,52,30,13,30.17,30.04,17,1,17,0.00
2013-7-20,102.6,78.8,56.8,46.2,39.4,32.5,45,27,11,30.11,29.99,15,1,15,0.00
2013-7-21,102.0,80.9,59.0,53.1,43.7,38.1,52,31,12,30.08,29.98,14,1,14,0.00
2013-7-22,100.2,79.7,60.8,51.4,44.4,38.8,49,31,14,30.17,30.04,14,1,14,0.00
2013-7-23,83.8,78.4,73.0,48.7,47.4,46.7,40,34,28,30.18,30.13,9,2,9,0.00
2013-7-24,91.9,76.4,59.5,53.4,48.4,42.2,57,39,24,30.19,30.11,11,1,11,0.00
2013-7-25,93.0,70.3,57.9,55.8,49.5,42.6,68,49,25,30.27,30.15,10,1,10,0.00
2013-7-26,93.0,73.8,56.5,60.4,52.2,45.7,77,51,26,30.28,30.17,15,1,15,0.00
2013-7-27,93.0,74.1,55.2,53.2,46.1,40.5,61,40,20,30.23,30.04,12,1,12,0.00
2013-7-28,90.3,72.7,53.8,49.6,42.5,37.0,56,36,21,30.09,29.99,24,1,24,0.00
2013-7-29,88.0,70.2,51.6,46.2,38.7,33.5,54,34,20,30.17,30.04,16,2,16,0.00
2013-7-30,88.3,70.9,50.7,46.4,39.7,31.9,53,34,19,30.24,30.15,16,1,16,0.00
2013-7-31,86.7,71.7,57.9,47.7,40.8,34.4,50,34,22,30.21,30.10,17,2,17,0.00
2013-8-1,81.5,67.9,54.1,38.5,30.8,22.9,46,28,15,30.14,30.09,19,1,19,0.00
2013-8-2,85.1,64.1,40.5,34.5,26.6,17.5,43,27,13,30.15,30.04,16,2,16,0.00
2013-8-3,88.2,67.9,45.3,40.9,33.8,24.0,47,30,16,30.14,30.05,14,1,14,0.00
2013-8-4,91.6,69.4,48.6,43.1,36.9,30.2,52,33,15,30.17,30.06,17,1,17,0.00
2013-8-5,91.2,69.3,48.4,41.6,34.7,28.9,49,31,15,30.18,30.07,13,1,13,0.00
2013-8-6,92.8,69.6,48.2,41.4,34.5,26.2,46,30,14,30.17,30.04,13,1,13,0.00
2013-8-7,84.9,71.7,60.1,44.5,38.2,34.2,40,30,21,30.14,30.09,15,1,15,0.00
2013-8-8,84.4,67.3,48.9,43.1,35.9,25.9,44,33,20,30.14,30.01,13,2,13,0.00
2013-8-9,83.7,66.4,51.6,46.7,39.1,32.9,56,39,19,30.10,30.00,13,1,13,0.00
2013-8-10,82.6,64.7,44.4,40.5,34.4,25.0,50,34,20,30.17,30.09,16,1,16,0.00
2013-8-11,85.1,65.5,45.7,43.9,36.7,29.0,55,37,20,30.18,30.07,13,1,13,0.00
2013-8-12,86.5,66.5,45.9,43.8,37.1,29.0,54,36,20,30.16,30.08,18,1,18,0.00
2013-8-13,89.8,67.0,44.8,41.7,34.8,27.1,51,33,16,30.21,30.10,12,1,12,0.00
2013-8-14,91.9,68.8,46.0,40.7,32.8,22.5,46,29,15,30.19,30.07,12,1,12,0.00
2013-8-15,90.1,67.9,46.4,40.1,31.4,24.1,45,28,13,30.17,30.10,14,1,14,0.00
2013-8-16,90.0,70.1,47.8,41.3,31.6,21.5,40,26,15,30.21,30.13,15,1,15,0.00
2013-8-17,92.3,70.7,50.5,47.5,37.6,27.2,43,31,20,30.20,30.06,15,0,15,0.00
2013-8-18,94.1,71.9,51.3,48.3,41.5,34.4,55,36,19,30.18,30.07,7,0,7,0.00
2013-8-19,88.0,74.5,62.4,49.8,44.4,39.1,49,35,25,30.21,30.12,16,2,16,0.00
2013-8-20,92.5,70.8,57.0,53.2,46.2,40.3,56,43,21,30.17,30.06,10,1,10,0.05
2013-8-21,79.0,63.5,54.1,54.5,47.9,42.3,67,57,39,30.19,30.10,16,0,16,0.02
2013-8-22,80.4,64.8,50.2,56.9,45.7,37.6,77,53,29,30.17,30.04,10,1,10,0.00
2013-8-23,82.8,64.3,47.5,47.0,39.0,31.3,57,41,26,30.10,29.98,12,0,12,0.00
2013-8-24,80.4,62.5,43.5,45.0,36.7,29.2,60,41,24,30.06,29.99,23,1,23,0.00
2013-8-25,78.6,62.8,46.0,45.9,37.0,27.6,53,39,28,30.10,30.04,13,1,13,0.00
2013-8-26,80.4,63.7,47.1,46.0,38.3,30.6,55,41,25,30.15,30.06,16,1,16,0.00
2013-8-27,84.4,64.9,47.7,50.9,40.8,32.4,59,43,29,30.12,30.00,5,0,5,0.00
2013-8-28,82.2,66.0,52.0,54.7,44.4,37.5,61,47,34,30.12,30.05,12,1,12,0.00
2013-8-29,85.3,68.2,51.6,49.8,41.8,36.5,63,41,22,30.21,30.12,13,1,13,0.00
2013-8-30,89.4,68.3,47.5,49.2,38.7,29.5,53,36,20,30.25,30.13,11,0,11,0.00
2013-8-31,90.3,70.4,51.1,50.7,40.6,32.4,53,36,21,30.19,30.08,12,1,12,0.00
2013-9-1,85.8,69.7,57.0,50.7,43.5,35.5,50,40,27,30.14,30.04,11,1,11,0.00
2013-9-2,79.5,71.1,63.7,52.9,48.2,44.7,57,45,33,30.10,30.04,16,2,16,0.00
2013-9-3,85.8,72.0,58.3,55.0,48.5,43.6,61,45,30,30.14,30.07,22,1,22,0.00
2013-9-4,84.7,70.5,54.7,54.6,46.3,39.4,60,43,29,30.18,30.07,23,2,23,0.00
2013-9-5,83.8,70.4,55.9,48.9,41.7,35.5,55,37,24,30.13,30.06,17,2,17,0.00
2013-9-6,84.7,68.7,53.8,44.6,38.5,32.7,52,35,22,30.18,30.07,10,2,10,0.00
2013-9-7,86.2,66.0,46.2,42.9,35.8,26.5,51,35,21,30.15,30.05,17,1,17,0.00
2013-9-8,86.5,64.9,45.1,46.1,34.9,26.4,53,35,19,30.15,30.02,10,1,10,0.00
2013-9-9,84.9,66.5,45.3,45.7,33.4,21.9,46,31,20,30.14,29.99,10,1,10,0.00
2013-9-10,84.6,64.6,45.1,43.4,30.6,20.3,44,29,17,30.10,30.00,9,1,9,0.00
2013-9-11,85.8,66.3,48.6,46.2,35.5,24.9,48,33,20,30.14,30.07,10,1,10,0.00
2013-9-12,82.8,66.3,50.2,51.0,41.8,30.1,55,42,30,30.14,30.04,15,1,15,0.00
2013-9-13,85.3,65.9,49.3,54.6,45.7,39.7,72,51,26,30.12,29.99,12,1,12,0.00
2013-9-14,86.5,68.3,48.9,52.8,44.4,36.4,66,45,26,30.05,29.95,11,1,11,0.00
2013-9-15,85.5,67.6,51.1,50.4,40.4,30.4,61,40,25,30.05,29.98,17,2,17,0.00
2013-9-16,86.0,66.9,49.8,46.7,35.2,24.6,45,32,23,30.05,29.96,17,1,17,0.00
2013-9-17,74.5,63.0,50.5,39.0,29.7,21.5,41,29,20,30.05,29.89,18,3,18,0.00
2013-9-18,69.4,55.2,38.8,39.0,28.2,9.6,52,37,20,30.13,30.02,9,2,9,0.00
2013-9-19,75.6,54.9,36.1,34.1,17.0,-2.1,39,23,16,30.14,29.99,7,1,7,0.00
2013-9-20,79.7,58.6,39.0,40.3,18.5,-5.6,35,22,13,30.03,29.89,24,2,24,0.00
2013-9-21,65.3,53.0,45.1,38.7,23.2,-0.8,51,33,14,29.94,29.83,21,2,21,0.00
2013-9-22,66.0,51.2,36.9,37.6,30.8,23.3,73,47,27,30.10,29.92,11,1,11,0.22
2013-9-23,76.6,55.2,36.0,44.1,29.7,13.9,73,41,20,30.14,30.04,8,0,8,0.00
2013-9-24,73.2,57.4,40.8,34.5,19.8,-3.8,41,24,15,30.08,29.89,22,4,22,0.00
2013-9-25,61.0,50.2,40.3,33.7,14.9,-0.1,73,28,11,29.94,29.86,14,3,14,0.00
2013-9-26,54.7,44.1,35.8,32.8,18.0,-10.9,79,44,10,30.09,29.92,13,1,13,0.00
2013-9-27,61.9,46.7,32.2,25.3,10.6,-16.4,59,26,10,30.18,30.10,6,1,6,0.00
2013-9-28,73.8,60.8,35.2,38.3,22.7,-16.0,32,24,10,30.18,30.10,16,2,16,0.00
2013-9-29,70.9,61.9,55.2,29.1,20.0,7.3,27,20,15,30.14,30.09,22,5,22,0.00
2013-9-30,71.4,59.7,49.1,36.4,22.8,5.8,34,25,15,30.12,30.05,15,2,15,0.00
2013-10-1,74.1,56.8,39.9,40.6,25.1,4.9,66,33,15,30.06,30.00,16,1,16,0.00
2013-10-2,69.6,52.4,37.9,27.6,11.2,-5.8,40,21,10,30.08,29.99,11,1,11,0.00
2013-10-3,47.5,43.0,39.0,3.4,-4.4,-11.5,22,14,10,30.15,30.11,13,6,13,0.00
2013-10-4,56.5,54.1,51.1,2.1,1.0,-0.7,12,12,11,30.32,30.29,6,2,6,0.00
2013-10-6,74.5,71.7,65.3,15.7,12.6,7.0,11,10,10,30.20,30.14,6,3,6,0.00
2013-10-7,73.9,71.5,66.9,15.4,12.5,8.8,11,10,10,30.04,30.00,10,2,10,0.00
2013-10-8,65.3,64.2,62.2,7.3,6.5,5.1,10,10,10,29.94,29.88,9,3,9,0.00
2013-10-9,50.5,47.5,44.1,37.3,21.9,-4.0,74,39,12,29.87,29.75,12,3,12,0.04
2013-10-10,63.7,49.3,39.9,40.5,21.0,-8.4,97,42,10,30.06,29.86,8,0,8,0.00
2013-10-11,64.8,50.3,40.6,38.5,15.0,-10.2,87,32,10,30.13,30.01,10,0,10,0.00
2013-10-12,66.0,52.4,41.2,35.1,14.7,-8.4,74,28,10,30.06,29.93,14,1,14,0.00
2013-10-13,57.6,47.4,36.5,44.7,33.5,-2.8,99,61,12,30.12,29.96,13,3,13,0.04
2013-10-14,57.9,41.4,26.4,37.6,26.4,19.2,79,58,35,30.13,30.03,10,1,10,0.00
2013-10-15,57.0,40.0,25.0,31.2,21.2,13.6,73,49,29,30.12,30.05,17,2,17,0.00
2013-10-16,69.6,44.5,21.7,33.8,21.0,10.1,67,42,22,30.10,29.99,11,1,11,0.00
2013-10-17,68.0,47.3,28.8,33.3,21.3,15.0,62,38,20,30.08,29.98,6,1,6,0.00
2013-10-18,67.3,45.3,26.4,31.5,19.6,11.4,58,38,21,30.14,30.02,10,1,10,0.00
2013-10-19,71.2,47.1,27.1,33.8,20.2,12.0,58,37,18,30.12,30.01,9,1,9,0.00
2013-10-20,73.6,47.8,28.2,33.2,19.9,12.4,59,36,17,30.08,29.96,8,0,8,0.00
2013-10-21,70.9,48.1,28.6,29.3,19.5,11.5,54,34,19,30.09,29.98,8,1,8,0.00
2013-10-22,72.3,49.1,29.1,32.3,20.1,12.3,56,34,17,30.09,29.96,11,1,11,0.00
2013-10-23,73.2,48.3,28.6,32.1,19.1,11.5,55,34,18,30.03,29.92,9,1,9,0.00
2013-10-24,74.7,48.7,28.2,32.8,19.1,10.5,55,33,16,30.08,29.94,9,0,9,0.00
2013-10-25,75.0,47.9,28.2,31.7,16.7,8.2,54,32,13,30.14,30.06,6,0,6,0.00
2013-10-26,71.4,46.7,27.1,28.5,15.2,7.2,49,30,16,30.18,30.05,7,1,7,0.00
2013-10-27,70.5,46.7,27.5,29.8,18.2,9.3,50,34,18,30.06,29.48,33,4,33,0.00
2013-10-28,47.8,39.5,33.1,38.4,28.9,24.5,82,67,44,29.70,29.49,11,2,11,0.08
2013-10-29,43.0,40.2,37.9,33.5,30.6,28.1,77,69,61,29.95,29.70,14,4,14,0.00
2013-10-30,59.4,41.0,25.5,37.9,29.7,19.6,87,66,42,30.08,29.94,10,1,10,0.00
2013-10-31,61.3,40.9,23.4,39.2,27.0,17.1,85,60,31,30.15,30.06,9,1,9,0.00
2013-11-1,65.1,42.0,23.4,39.5,26.6,15.8,82,57,35,30.18,30.02,9,1,9,0.00
2013-11-2,66.7,44.0,24.1,37.4,25.9,16.5,80,53,24,30.02,29.82,21,2,21,0.00
2013-11-3,50.7,42.6,35.4,31.6,22.8,14.8,59,46,35,29.94,29.82,21,6,21,0.00
2013-11-4,53.6,37.7,25.2,24.4,15.4,8.1,56,41,29,30.07,29.85,11,2,11,0.00
2013-11-5,61.0,34.8,16.5,25.4,13.3,4.6,66,43,24,30.18,30.05,6,1,6,0.00
2013-11-6,65.3,40.2,22.1,30.7,17.5,7.8,62,42,24,30.24,30.12,12,1,12,0.00
2013-11-7,73.0,47.1,32.4,37.8,21.2,14.6,59,39,18,30.15,29.99,14,1,14,0.00
2013-11-8,74.5,49.7,33.1,33.5,21.0,13.9,48,34,18,30.01,29.90,14,1,14,0.00
2013-11-9,68.9,43.8,24.6,33.6,20.3,11.1,62,41,24,30.05,29.95,6,1,6,0.00
2013-11-10,71.4,43.4,24.3,34.4,19.1,11.1,65,41,20,30.09,30.00,7,0,7,0.00
2013-11-11,67.1,43.4,24.6,28.1,17.0,9.4,57,36,20,30.16,30.06,7,0,7,0.00
2013-11-12,64.6,46.1,34.2,32.0,20.9,12.3,49,38,24,30.23,30.14,10,1,10,0.00
2013-11-13,67.8,44.4,25.9,33.7,20.1,11.1,60,40,20,30.22,30.11,13,1,13,0.00
2013-11-14,70.2,43.9,23.5,35.6,22.1,11.7,67,44,22,30.12,29.75,5,0,5,0.00
2013-11-15,52.9,40.1,30.6,34.1,25.9,18.4,69,57,46,29.81,29.67,19,3,19,0.00
2013-11-16,65.1,45.2,29.3,32.1,26.3,19.4,72,50,28,29.82,29.60,16,2,16,0.00
2013-11-17,63.1,39.7,22.3,35.5,21.8,13.3,75,51,31,29.99,29.82,9,1,9,0.00
2013-11-18,58.3,41.2,21.9,33.2,23.5,10.5,68,50,38,29.99,29.88,9,0,9,0.00
2013-11-19,61.9,49.6,38.8,37.1,32.4,24.0,66,52,39,29.93,29.83,10,1,10,0.00
2013-11-20,52.7,44.6,36.0,41.8,36.0,31.2,85,72,60,29.84,29.73,20,1,20,0.06
2013-11-21,36.0,31.6,27.1,32.1,26.7,21.4,87,82,78,30.13,29.80,14,4,14,0.00
2013-11-22,44.2,27.4,15.1,26.7,15.9,10.2,85,64,36,30.19,30.06,11,1,11,0.00
2013-11-23,48.0,29.1,15.6,27.4,13.4,7.4,80,55,27,30.09,30.01,13,1,13,0.00
2013-11-24,57.0,29.7,13.3,27.6,13.1,4.7,75,52,29,30.17,30.04,3,0,3,0.00
2013-11-25,59.0,31.8,15.3,30.2,15.6,5.6,75,53,31,30.25,30.16,8,1,8,0.00
2013-11-26,55.6,33.2,17.6,32.3,18.3,8.3,74,56,37,30.20,30.03,6,0,6,0.00
2013-11-27,58.8,35.7,23.2,35.0,21.5,14.1,75,57,39,30.03,29.86,5,0,5,0.00
2013-11-28,55.9,35.0,24.6,35.4,22.0,15.6,75,60,42,30.06,29.90,6,0,6,0.00
2013-11-29,59.2,34.0,18.1,36.8,21.1,10.6,82,60,40,30.17,30.05,5,0,5,0.00
2013-11-30,58.6,33.6,17.4,34.7,19.7,9.9,81,59,37,30.21,30.09,8,1,8,0.00
2013-12-1,63.7,35.2,17.4,34.9,18.9,9.3,78,54,32,30.26,30.15,3,0,3,0.00
2013-12-2,64.2,43.9,23.9,30.6,20.7,13.1,67,43,21,30.16,29.75,15,1,15,0.00
2013-12-3,48.7,30.0,7.9,34.3,20.8,1.3,76,69,50,29.77,29.59,22,4,22,0.00
2013-12-4,30.4,16.6,3.9,18.9,8.7,-2.3,82,71,57,29.89,29.75,11,2,11,0.00
2013-12-5,36.1,20.8,9.0,21.3,11.2,0.7,73,66,51,29.93,29.86,6,1,6,0.00
2013-12-6,35.4,21.1,6.4,19.4,9.5,-1.0,79,62,37,29.90,29.61,16,2,16,0.00
2013-12-7,30.7,24.1,16.7,21.7,15.5,8.3,84,70,54,29.95,29.59,17,3,17,0.00
2013-12-8,32.7,11.0,-4.9,19.0,1.7,-13.2,76,66,51,30.17,29.93,4,0,4,0.02
2013-12-9,32.7,4.2,-10.5,17.0,-5.0,-17.8,77,66,47,30.33,30.17,13,1,13,0.00
2013-12-10,37.2,12.7,-5.4,20.4,2.4,-12.8,78,64,48,30.27,30.12,3,0,3,0.03
2013-12-11,39.9,13.4,-0.2,23.4,3.6,-8.0,78,65,48,30.23,30.16,7,0,7,0.00
2013-12-12,42.3,14.9,-1.7,25.8,5.2,-8.8,78,66,49,30.19,30.06,6,0,6,0.00
2013-12-13,48.0,21.3,4.8,29.2,11.1,-1.5,82,66,44,30.29,30.06,5,0,5,0.00
2013-12-14,47.3,20.6,5.2,29.4,9.9,-2.0,80,64,45,30.38,30.29,2,0,2,0.00
2013-12-15,48.9,21.9,7.2,31.2,11.5,-0.3,79,65,47,30.35,30.24,3,0,3,0.00
2013-12-16,49.8,23.9,9.1,32.8,13.7,1.9,80,66,46,30.32,30.22,5,0,5,0.00
2013-12-17,40.1,24.3,12.2,28.5,15.6,5.0,79,69,60,30.26,30.06,1,0,1,0.00
2013-12-18,52.0,34.7,19.0,36.4,23.7,13.0,82,66,43,30.05,29.62,10,0,10,0.00
2013-12-19,39.0,31.6,18.3,28.5,22.9,9.8,84,71,55,29.91,29.61,14,3,14,0.00
2013-12-20,40.5,22.0,7.9,25.3,12.6,1.6,81,68,51,29.97,29.88,3,0,3,0.00
2013-12-21,54.5,31.1,16.5,37.6,21.3,10.5,83,68,48,30.06,29.86,7,0,7,0.00
2013-12-22,59.7,31.8,19.0,37.9,21.4,12.2,84,67,41,30.25,30.06,4,0,4,0.00
2013-12-23,56.1,32.0,18.1,37.6,21.7,11.7,84,67,47,30.30,30.22,4,0,4,0.00
2013-12-24,55.0,32.5,18.7,35.4,22.8,12.4,84,68,44,30.34,30.23,10,1,10,0.00
2013-12-25,55.2,30.3,16.3,38.0,21.1,10.2,84,69,50,30.35,30.24,3,0,3,0.00
2013-12-26,50.7,28.1,13.8,33.7,18.4,7.9,84,68,51,30.30,30.21,8,0,8,0.12
2013-12-27,42.4,25.6,12.9,29.2,16.5,6.4,81,69,55,30.24,30.04,4,0,4,0.00
2013-12-28,50.0,28.2,12.6,30.7,16.6,6.4,82,63,37,30.20,30.03,14,2,14,0.00
2013-12-29,52.9,27.4,12.2,31.8,15.4,4.9,80,62,41,30.22,30.14,4,0,4,0.00
2013-12-30,51.3,30.1,14.0,32.3,17.7,6.4,80,61,44,30.19,30.10,4,0,4,0.00
2013-12-31,54.7,34.6,23.4,35.1,21.0,11.1,75,59,38,30.17,30.08,9,1,9,0.00
2014-1-1,56.8,31.3,16.2,31.6,16.7,7.6,78,56,33,30.21,30.10,11,1,11,0.00
2014-1-2,57.4,31.6,16.3,33.2,17.5,7.9,78,57,37,30.16,30.04,6,0,6,0.00